sensor_id;sensor_type;location;lat;lon;timestamp;temperature;humidity
29813;DHT22;16707;48.106;11.548;2022-08-19T00:00:11;18.50;99.90
29813;DHT22;16707;48.106;11.548;2022-08-19T00:02:40;18.60;99.90
29813;DHT22;16707;48.106;11.548;2022-08-19T00:05:13;18.70;99.90
29813;DHT22;16707;48.106;11.548;2022-08-19T00:07:44;18.80;99.90
29813;DHT22;16707;48.106;11.548;2022-08-19T00:10:14;18.70;99.90
29813;DHT22;16707;48.106;11.548;2022-08-19T00:12:53;18.60;99.90
29813;DHT22;16707;48.106;11.548;2022-08-19T00:15:21;18.60;99.90
29813;DHT22;16707;48.106;11.548;2022-08-19T00:17:51;18.60;99.90
29813;DHT22;16707;48.106;11.548;2022-08-19T00:20:24;18.60;99.90
29813;DHT22;16707;48.106;11.548;2022-08-19T00:22:51;18.50;99.90
29813;DHT22;16707;48.106;11.548;2022-08-19T00:25:25;18.60;99.90
29813;DHT22;16707;48.106;11.548;2022-08-19T00:27:55;18.70;99.90
29813;DHT22;16707;48.106;11.548;2022-08-19T00:30:25;18.60;99.90
29813;DHT22;16707;48.106;11.548;2022-08-19T00:32:57;18.60;99.90
29813;DHT22;16707;48.106;11.548;2022-08-19T00:35:30;18.40;99.90
29813;DHT22;16707;48.106;11.548;2022-08-19T00:38:05;18.60;99.90
29813;DHT22;16707;48.106;11.548;2022-08-19T00:40:32;18.60;99.90
29813;DHT22;16707;48.106;11.548;2022-08-19T00:43:11;18.60;99.90
29813;DHT22;16707;48.106;11.548;2022-08-19T00:45:47;18.70;99.90
29813;DHT22;16707;48.106;11.548;2022-08-19T00:48:20;18.60;99.90
29813;DHT22;16707;48.106;11.548;2022-08-19T00:50:53;18.60;99.90
29813;DHT22;16707;48.106;11.548;2022-08-19T00:53:27;18.50;99.90
29813;DHT22;16707;48.106;11.548;2022-08-19T00:55:58;18.60;99.90
29813;DHT22;16707;48.106;11.548;2022-08-19T00:58:33;18.40;99.90
29813;DHT22;16707;48.106;11.548;2022-08-19T01:01:04;18.40;99.90
29813;DHT22;16707;48.106;11.548;2022-08-19T01:03:35;18.40;99.90
29813;DHT22;16707;48.106;11.548;2022-08-19T01:06:10;18.40;99.90
29813;DHT22;16707;48.106;11.548;2022-08-19T01:11:47;18.30;99.90
29813;DHT22;16707;48.106;11.548;2022-08-19T01:14:22;18.50;99.90
29813;DHT22;16707;48.106;11.548;2022-08-19T01:16:58;18.40;99.90
29813;DHT22;16707;48.106;11.548;2022-08-19T01:19:29;18.40;99.90
29813;DHT22;16707;48.106;11.548;2022-08-19T01:22:11;18.40;99.90
29813;DHT22;16707;48.106;11.548;2022-08-19T01:24:40;18.40;99.90
29813;DHT22;16707;48.106;11.548;2022-08-19T01:27:10;18.30;99.90
29813;DHT22;16707;48.106;11.548;2022-08-19T01:29:46;18.30;99.90
29813;DHT22;16707;48.106;11.548;2022-08-19T01:32:15;18.40;99.90
29813;DHT22;16707;48.106;11.548;2022-08-19T01:34:45;18.40;99.90
29813;DHT22;16707;48.106;11.548;2022-08-19T01:37:13;18.40;99.90
29813;DHT22;16707;48.106;11.548;2022-08-19T01:39:49;18.50;99.90
29813;DHT22;16707;48.106;11.548;2022-08-19T01:42:22;18.70;99.90
29813;DHT22;16707;48.106;11.548;2022-08-19T01:44:49;18.60;99.90
29813;DHT22;16707;48.106;11.548;2022-08-19T01:47:16;18.70;99.90
29813;DHT22;16707;48.106;11.548;2022-08-19T01:49:43;18.60;99.90
29813;DHT22;16707;48.106;11.548;2022-08-19T01:52:19;18.70;99.90
29813;DHT22;16707;48.106;11.548;2022-08-19T01:54:54;18.70;99.90
29813;DHT22;16707;48.106;11.548;2022-08-19T01:57:21;18.80;99.90
29813;DHT22;16707;48.106;11.548;2022-08-19T01:59:54;18.70;99.90
29813;DHT22;16707;48.106;11.548;2022-08-19T02:02:22;18.80;99.90
29813;DHT22;16707;48.106;11.548;2022-08-19T02:04:59;18.80;99.90
29813;DHT22;16707;48.106;11.548;2022-08-19T02:07:33;18.80;99.90
29813;DHT22;16707;48.106;11.548;2022-08-19T02:10:05;18.80;99.90
29813;DHT22;16707;48.106;11.548;2022-08-19T02:12:38;18.90;99.90
29813;DHT22;16707;48.106;11.548;2022-08-19T02:15:06;18.80;99.90
29813;DHT22;16707;48.106;11.548;2022-08-19T02:17:37;18.90;99.90
29813;DHT22;16707;48.106;11.548;2022-08-19T02:20:05;18.90;99.90
29813;DHT22;16707;48.106;11.548;2022-08-19T02:22:36;18.90;99.90
29813;DHT22;16707;48.106;11.548;2022-08-19T02:25:06;18.90;99.90
29813;DHT22;16707;48.106;11.548;2022-08-19T02:27:41;19.00;99.90
29813;DHT22;16707;48.106;11.548;2022-08-19T02:30:18;18.80;99.90
29813;DHT22;16707;48.106;11.548;2022-08-19T02:32:52;19.00;99.90
29813;DHT22;16707;48.106;11.548;2022-08-19T02:35:28;19.00;99.90
29813;DHT22;16707;48.106;11.548;2022-08-19T02:37:55;18.80;99.90
29813;DHT22;16707;48.106;11.548;2022-08-19T02:40:50;18.80;99.90
29813;DHT22;16707;48.106;11.548;2022-08-19T02:43:25;18.70;99.90
29813;DHT22;16707;48.106;11.548;2022-08-19T02:45:57;18.70;99.90
29813;DHT22;16707;48.106;11.548;2022-08-19T02:48:28;18.70;99.90
29813;DHT22;16707;48.106;11.548;2022-08-19T02:51:07;18.60;99.90
29813;DHT22;16707;48.106;11.548;2022-08-19T02:53:48;18.60;99.90
29813;DHT22;16707;48.106;11.548;2022-08-19T02:56:34;18.60;99.90
29813;DHT22;16707;48.106;11.548;2022-08-19T02:59:07;18.50;99.90
29813;DHT22;16707;48.106;11.548;2022-08-19T03:01:41;18.50;99.90
29813;DHT22;16707;48.106;11.548;2022-08-19T03:04:15;18.60;99.90
29813;DHT22;16707;48.106;11.548;2022-08-19T03:06:45;18.60;99.90
29813;DHT22;16707;48.106;11.548;2022-08-19T03:09:17;18.40;99.90
29813;DHT22;16707;48.106;11.548;2022-08-19T03:11:46;18.60;99.90
29813;DHT22;16707;48.106;11.548;2022-08-19T03:14:17;18.50;99.90
29813;DHT22;16707;48.106;11.548;2022-08-19T03:17:00;18.50;99.90
29813;DHT22;16707;48.106;11.548;2022-08-19T03:19:31;18.40;99.90
29813;DHT22;16707;48.106;11.548;2022-08-19T03:22:11;18.60;99.90
29813;DHT22;16707;48.106;11.548;2022-08-19T03:24:42;18.50;99.90
29813;DHT22;16707;48.106;11.548;2022-08-19T03:27:16;18.70;99.90
29813;DHT22;16707;48.106;11.548;2022-08-19T03:29:45;18.70;99.90
29813;DHT22;16707;48.106;11.548;2022-08-19T03:32:31;18.60;99.90
29813;DHT22;16707;48.106;11.548;2022-08-19T03:35:01;18.70;99.90
29813;DHT22;16707;48.106;11.548;2022-08-19T03:37:31;18.70;99.90
29813;DHT22;16707;48.106;11.548;2022-08-19T03:40:06;18.60;99.90
29813;DHT22;16707;48.106;11.548;2022-08-19T03:42:48;18.60;99.90
29813;DHT22;16707;48.106;11.548;2022-08-19T03:45:18;18.60;99.90
29813;DHT22;16707;48.106;11.548;2022-08-19T03:47:47;18.70;99.90
29813;DHT22;16707;48.106;11.548;2022-08-19T03:50:17;18.70;99.90
29813;DHT22;16707;48.106;11.548;2022-08-19T03:52:50;18.70;99.90
29813;DHT22;16707;48.106;11.548;2022-08-19T03:55:20;18.70;99.90
29813;DHT22;16707;48.106;11.548;2022-08-19T03:57:50;18.60;99.90
29813;DHT22;16707;48.106;11.548;2022-08-19T04:00:22;18.60;99.90
29813;DHT22;16707;48.106;11.548;2022-08-19T04:02:52;18.70;99.90
29813;DHT22;16707;48.106;11.548;2022-08-19T04:05:21;18.70;99.90
29813;DHT22;16707;48.106;11.548;2022-08-19T04:07:55;18.70;99.90
29813;DHT22;16707;48.106;11.548;2022-08-19T04:10:26;18.70;99.90
29813;DHT22;16707;48.106;11.548;2022-08-19T04:13:04;18.70;99.90
29813;DHT22;16707;48.106;11.548;2022-08-19T04:15:43;18.70;99.90
29813;DHT22;16707;48.106;11.548;2022-08-19T04:18:15;18.70;99.90
29813;DHT22;16707;48.106;11.548;2022-08-19T04:20:51;18.80;99.90
29813;DHT22;16707;48.106;11.548;2022-08-19T04:23:28;18.80;99.90
29813;DHT22;16707;48.106;11.548;2022-08-19T04:26:23;19.00;99.90
29813;DHT22;16707;48.106;11.548;2022-08-19T04:28:55;19.10;99.90
29813;DHT22;16707;48.106;11.548;2022-08-19T04:31:39;19.00;99.90
29813;DHT22;16707;48.106;11.548;2022-08-19T04:34:10;19.00;99.90
29813;DHT22;16707;48.106;11.548;2022-08-19T04:36:53;18.90;99.90
29813;DHT22;16707;48.106;11.548;2022-08-19T04:39:27;18.80;99.90
29813;DHT22;16707;48.106;11.548;2022-08-19T04:42:15;18.90;99.90
29813;DHT22;16707;48.106;11.548;2022-08-19T04:45:05;18.80;99.90
29813;DHT22;16707;48.106;11.548;2022-08-19T04:47:48;18.90;99.90
29813;DHT22;16707;48.106;11.548;2022-08-19T04:50:21;19.00;99.90
29813;DHT22;16707;48.106;11.548;2022-08-19T04:52:50;19.00;99.90
29813;DHT22;16707;48.106;11.548;2022-08-19T04:55:18;19.20;99.90
29813;DHT22;16707;48.106;11.548;2022-08-19T04:57:51;19.30;99.90
29813;DHT22;16707;48.106;11.548;2022-08-19T05:00:25;19.20;99.90
29813;DHT22;16707;48.106;11.548;2022-08-19T05:02:55;19.30;99.90
29813;DHT22;16707;48.106;11.548;2022-08-19T05:05:25;19.20;99.90
29813;DHT22;16707;48.106;11.548;2022-08-19T05:07:59;19.10;99.90
29813;DHT22;16707;48.106;11.548;2022-08-19T05:10:29;18.90;99.90
29813;DHT22;16707;48.106;11.548;2022-08-19T05:13:06;19.00;99.90
29813;DHT22;16707;48.106;11.548;2022-08-19T05:15:36;19.10;99.90
29813;DHT22;16707;48.106;11.548;2022-08-19T05:18:07;19.30;99.90
29813;DHT22;16707;48.106;11.548;2022-08-19T05:21:01;19.20;99.90
29813;DHT22;16707;48.106;11.548;2022-08-19T05:23:59;19.30;99.90
29813;DHT22;16707;48.106;11.548;2022-08-19T05:26:29;19.20;99.90
29813;DHT22;16707;48.106;11.548;2022-08-19T05:28:56;19.10;99.90
29813;DHT22;16707;48.106;11.548;2022-08-19T05:31:28;19.10;99.90
29813;DHT22;16707;48.106;11.548;2022-08-19T05:34:02;19.00;99.90
29813;DHT22;16707;48.106;11.548;2022-08-19T05:36:37;19.20;99.90
29813;DHT22;16707;48.106;11.548;2022-08-19T05:39:07;19.20;99.90
29813;DHT22;16707;48.106;11.548;2022-08-19T05:41:35;19.20;99.90
29813;DHT22;16707;48.106;11.548;2022-08-19T05:44:15;19.20;99.90
29813;DHT22;16707;48.106;11.548;2022-08-19T05:46:57;19.30;99.90
29813;DHT22;16707;48.106;11.548;2022-08-19T05:49:31;19.30;99.90
29813;DHT22;16707;48.106;11.548;2022-08-19T05:52:02;19.40;99.90
29813;DHT22;16707;48.106;11.548;2022-08-19T05:54:32;19.30;99.90
29813;DHT22;16707;48.106;11.548;2022-08-19T05:57:03;19.30;99.90
29813;DHT22;16707;48.106;11.548;2022-08-19T05:59:31;19.30;99.90
29813;DHT22;16707;48.106;11.548;2022-08-19T06:02:02;19.20;99.90
29813;DHT22;16707;48.106;11.548;2022-08-19T06:04:31;19.40;99.90
29813;DHT22;16707;48.106;11.548;2022-08-19T06:07:02;19.30;99.90
29813;DHT22;16707;48.106;11.548;2022-08-19T06:09:30;19.10;99.90
29813;DHT22;16707;48.106;11.548;2022-08-19T06:12:00;19.00;99.90
29813;DHT22;16707;48.106;11.548;2022-08-19T06:14:32;18.90;99.90
29813;DHT22;16707;48.106;11.548;2022-08-19T06:17:03;19.00;99.90
29813;DHT22;16707;48.106;11.548;2022-08-19T06:19:30;19.10;99.90
29813;DHT22;16707;48.106;11.548;2022-08-19T06:22:02;19.00;99.90
29813;DHT22;16707;48.106;11.548;2022-08-19T06:24:36;19.00;99.90
29813;DHT22;16707;48.106;11.548;2022-08-19T06:27:07;19.00;99.90
29813;DHT22;16707;48.106;11.548;2022-08-19T06:29:34;19.10;99.90
29813;DHT22;16707;48.106;11.548;2022-08-19T06:32:04;19.10;99.90
29813;DHT22;16707;48.106;11.548;2022-08-19T06:34:36;19.10;99.90
29813;DHT22;16707;48.106;11.548;2022-08-19T06:37:03;19.10;99.90
29813;DHT22;16707;48.106;11.548;2022-08-19T06:39:38;19.20;99.90
29813;DHT22;16707;48.106;11.548;2022-08-19T06:42:06;19.20;99.90
29813;DHT22;16707;48.106;11.548;2022-08-19T06:44:38;19.20;99.90
29813;DHT22;16707;48.106;11.548;2022-08-19T06:47:11;19.20;99.90
29813;DHT22;16707;48.106;11.548;2022-08-19T06:49:43;19.10;99.90
29813;DHT22;16707;48.106;11.548;2022-08-19T06:52:11;19.40;99.90
29813;DHT22;16707;48.106;11.548;2022-08-19T06:54:42;19.50;99.90
29813;DHT22;16707;48.106;11.548;2022-08-19T06:57:10;19.60;99.90
29813;DHT22;16707;48.106;11.548;2022-08-19T06:59:40;19.80;99.90
29813;DHT22;16707;48.106;11.548;2022-08-19T07:02:12;19.70;99.90
29813;DHT22;16707;48.106;11.548;2022-08-19T07:04:41;19.80;99.90
29813;DHT22;16707;48.106;11.548;2022-08-19T07:07:13;19.70;99.90
29813;DHT22;16707;48.106;11.548;2022-08-19T07:09:43;19.70;99.90
29813;DHT22;16707;48.106;11.548;2022-08-19T07:12:14;19.90;99.90
29813;DHT22;16707;48.106;11.548;2022-08-19T07:14:42;19.90;99.90
29813;DHT22;16707;48.106;11.548;2022-08-19T07:17:13;19.90;99.90
29813;DHT22;16707;48.106;11.548;2022-08-19T07:19:44;20.00;99.90
29813;DHT22;16707;48.106;11.548;2022-08-19T07:22:12;20.20;99.90
29813;DHT22;16707;48.106;11.548;2022-08-19T07:24:40;20.10;99.90
29813;DHT22;16707;48.106;11.548;2022-08-19T07:27:07;20.20;99.90
29813;DHT22;16707;48.106;11.548;2022-08-19T07:29:38;20.40;99.90
29813;DHT22;16707;48.106;11.548;2022-08-19T07:32:13;20.60;99.90
29813;DHT22;16707;48.106;11.548;2022-08-19T07:34:40;20.70;99.90
29813;DHT22;16707;48.106;11.548;2022-08-19T07:37:07;20.90;99.90
29813;DHT22;16707;48.106;11.548;2022-08-19T07:39:35;21.00;99.90
29813;DHT22;16707;48.106;11.548;2022-08-19T07:42:13;21.20;99.90
29813;DHT22;16707;48.106;11.548;2022-08-19T07:44:41;21.30;99.90
29813;DHT22;16707;48.106;11.548;2022-08-19T07:47:08;21.40;99.90
29813;DHT22;16707;48.106;11.548;2022-08-19T07:49:37;21.60;99.90
29813;DHT22;16707;48.106;11.548;2022-08-19T07:52:11;21.50;99.90
29813;DHT22;16707;48.106;11.548;2022-08-19T07:54:39;21.20;99.90
29813;DHT22;16707;48.106;11.548;2022-08-19T07:57:07;21.10;99.90
29813;DHT22;16707;48.106;11.548;2022-08-19T07:59:37;20.80;99.90
29813;DHT22;16707;48.106;11.548;2022-08-19T08:02:05;20.70;99.90
29813;DHT22;16707;48.106;11.548;2022-08-19T08:04:32;20.70;99.90
29813;DHT22;16707;48.106;11.548;2022-08-19T08:07:21;20.50;99.90
29813;DHT22;16707;48.106;11.548;2022-08-19T08:10:07;20.50;99.90
29813;DHT22;16707;48.106;11.548;2022-08-19T08:12:39;20.50;99.90
29813;DHT22;16707;48.106;11.548;2022-08-19T08:15:10;20.50;99.90
29813;DHT22;16707;48.106;11.548;2022-08-19T08:17:42;20.40;99.90
29813;DHT22;16707;48.106;11.548;2022-08-19T08:20:13;20.30;99.90
29813;DHT22;16707;48.106;11.548;2022-08-19T08:22:45;20.30;99.90
29813;DHT22;16707;48.106;11.548;2022-08-19T08:25:34;20.30;99.90
29813;DHT22;16707;48.106;11.548;2022-08-19T08:28:05;20.20;99.90
29813;DHT22;16707;48.106;11.548;2022-08-19T08:30:34;20.10;99.90
29813;DHT22;16707;48.106;11.548;2022-08-19T08:33:05;20.10;99.90
29813;DHT22;16707;48.106;11.548;2022-08-19T08:35:33;20.00;99.90
29813;DHT22;16707;48.106;11.548;2022-08-19T08:38:03;20.00;99.90
29813;DHT22;16707;48.106;11.548;2022-08-19T08:40:45;20.00;99.90
29813;DHT22;16707;48.106;11.548;2022-08-19T08:43:22;20.20;99.90
29813;DHT22;16707;48.106;11.548;2022-08-19T08:45:55;20.20;99.90
29813;DHT22;16707;48.106;11.548;2022-08-19T08:48:33;20.30;99.90
29813;DHT22;16707;48.106;11.548;2022-08-19T08:51:09;20.30;99.90
29813;DHT22;16707;48.106;11.548;2022-08-19T08:53:41;20.10;99.90
29813;DHT22;16707;48.106;11.548;2022-08-19T08:56:09;20.10;99.90
29813;DHT22;16707;48.106;11.548;2022-08-19T08:58:47;20.10;99.90
29813;DHT22;16707;48.106;11.548;2022-08-19T09:01:18;20.00;99.90
29813;DHT22;16707;48.106;11.548;2022-08-19T09:03:46;20.00;99.90
29813;DHT22;16707;48.106;11.548;2022-08-19T09:06:21;20.00;99.90
29813;DHT22;16707;48.106;11.548;2022-08-19T09:08:59;20.10;99.90
29813;DHT22;16707;48.106;11.548;2022-08-19T09:11:44;20.10;99.90
29813;DHT22;16707;48.106;11.548;2022-08-19T09:14:34;20.20;99.90
29813;DHT22;16707;48.106;11.548;2022-08-19T09:17:07;20.20;99.90
29813;DHT22;16707;48.106;11.548;2022-08-19T09:19:46;20.10;99.90
29813;DHT22;16707;48.106;11.548;2022-08-19T09:22:20;20.20;99.90
29813;DHT22;16707;48.106;11.548;2022-08-19T09:24:50;20.20;99.90
29813;DHT22;16707;48.106;11.548;2022-08-19T09:27:19;20.40;99.90
29813;DHT22;16707;48.106;11.548;2022-08-19T09:29:49;20.40;99.90
29813;DHT22;16707;48.106;11.548;2022-08-19T09:32:17;20.60;99.90
29813;DHT22;16707;48.106;11.548;2022-08-19T09:34:53;20.60;99.90
29813;DHT22;16707;48.106;11.548;2022-08-19T09:37:24;20.50;99.90
29813;DHT22;16707;48.106;11.548;2022-08-19T09:39:55;20.50;99.90
29813;DHT22;16707;48.106;11.548;2022-08-19T09:42:29;20.50;99.90
29813;DHT22;16707;48.106;11.548;2022-08-19T09:44:57;20.40;99.90
29813;DHT22;16707;48.106;11.548;2022-08-19T09:47:27;20.50;99.90
29813;DHT22;16707;48.106;11.548;2022-08-19T09:49:54;20.60;99.90
29813;DHT22;16707;48.106;11.548;2022-08-19T09:52:21;20.60;99.90
29813;DHT22;16707;48.106;11.548;2022-08-19T09:54:51;20.80;99.90
29813;DHT22;16707;48.106;11.548;2022-08-19T09:57:21;21.00;99.90
29813;DHT22;16707;48.106;11.548;2022-08-19T09:59:48;21.20;99.90
29813;DHT22;16707;48.106;11.548;2022-08-19T10:02:15;21.30;99.90
29813;DHT22;16707;48.106;11.548;2022-08-19T10:04:44;21.30;99.90
29813;DHT22;16707;48.106;11.548;2022-08-19T10:07:29;21.00;99.90
29813;DHT22;16707;48.106;11.548;2022-08-19T10:09:56;21.00;99.90
29813;DHT22;16707;48.106;11.548;2022-08-19T10:12:25;21.00;99.90
29813;DHT22;16707;48.106;11.548;2022-08-19T10:14:52;21.20;99.90
29813;DHT22;16707;48.106;11.548;2022-08-19T10:17:20;21.20;99.90
29813;DHT22;16707;48.106;11.548;2022-08-19T10:19:47;21.40;99.90
29813;DHT22;16707;48.106;11.548;2022-08-19T10:22:14;21.60;99.90
29813;DHT22;16707;48.106;11.548;2022-08-19T10:24:41;22.20;99.90
29813;DHT22;16707;48.106;11.548;2022-08-19T10:27:09;22.60;99.90
29813;DHT22;16707;48.106;11.548;2022-08-19T10:29:37;22.50;99.90
29813;DHT22;16707;48.106;11.548;2022-08-19T10:32:06;22.20;99.90
29813;DHT22;16707;48.106;11.548;2022-08-19T10:34:35;21.90;99.90
29813;DHT22;16707;48.106;11.548;2022-08-19T10:37:04;21.70;99.90
29813;DHT22;16707;48.106;11.548;2022-08-19T10:39:36;21.30;99.90
29813;DHT22;16707;48.106;11.548;2022-08-19T10:42:05;21.40;99.90
29813;DHT22;16707;48.106;11.548;2022-08-19T10:44:37;21.30;99.90
29813;DHT22;16707;48.106;11.548;2022-08-19T10:47:05;21.50;99.90
29813;DHT22;16707;48.106;11.548;2022-08-19T10:49:32;21.80;99.90
29813;DHT22;16707;48.106;11.548;2022-08-19T10:52:20;22.00;99.90
29813;DHT22;16707;48.106;11.548;2022-08-19T10:55:04;22.30;99.90
29813;DHT22;16707;48.106;11.548;2022-08-19T10:57:49;22.90;99.90
29813;DHT22;16707;48.106;11.548;2022-08-19T11:00:19;23.00;99.90
29813;DHT22;16707;48.106;11.548;2022-08-19T11:02:48;22.80;99.90
29813;DHT22;16707;48.106;11.548;2022-08-19T11:05:15;22.70;99.90
29813;DHT22;16707;48.106;11.548;2022-08-19T11:07:44;22.70;99.90
29813;DHT22;16707;48.106;11.548;2022-08-19T11:10:13;22.60;99.90
29813;DHT22;16707;48.106;11.548;2022-08-19T11:12:47;22.50;99.90
29813;DHT22;16707;48.106;11.548;2022-08-19T11:15:18;22.20;99.90
29813;DHT22;16707;48.106;11.548;2022-08-19T11:17:45;22.10;99.90
29813;DHT22;16707;48.106;11.548;2022-08-19T11:20:13;22.10;99.90
29813;DHT22;16707;48.106;11.548;2022-08-19T11:22:41;22.20;99.90
29813;DHT22;16707;48.106;11.548;2022-08-19T11:25:10;22.00;99.90
29813;DHT22;16707;48.106;11.548;2022-08-19T11:27:38;22.10;99.90
29813;DHT22;16707;48.106;11.548;2022-08-19T11:30:12;22.20;99.90
29813;DHT22;16707;48.106;11.548;2022-08-19T11:32:42;22.30;99.90
29813;DHT22;16707;48.106;11.548;2022-08-19T11:35:12;22.30;99.90
29813;DHT22;16707;48.106;11.548;2022-08-19T11:37:39;22.30;99.90
29813;DHT22;16707;48.106;11.548;2022-08-19T11:40:07;22.20;99.90
29813;DHT22;16707;48.106;11.548;2022-08-19T11:42:35;22.20;99.90
29813;DHT22;16707;48.106;11.548;2022-08-19T11:45:20;22.40;99.90
29813;DHT22;16707;48.106;11.548;2022-08-19T11:47:51;22.40;99.90
29813;DHT22;16707;48.106;11.548;2022-08-19T11:50:19;22.40;99.90
29813;DHT22;16707;48.106;11.548;2022-08-19T11:52:49;22.50;99.90
29813;DHT22;16707;48.106;11.548;2022-08-19T11:55:16;22.60;99.90
29813;DHT22;16707;48.106;11.548;2022-08-19T11:57:51;22.60;99.90
29813;DHT22;16707;48.106;11.548;2022-08-19T12:00:19;22.60;99.90
29813;DHT22;16707;48.106;11.548;2022-08-19T12:02:47;22.60;99.90
29813;DHT22;16707;48.106;11.548;2022-08-19T12:05:15;22.60;99.90
29813;DHT22;16707;48.106;11.548;2022-08-19T12:07:45;22.60;99.90
29813;DHT22;16707;48.106;11.548;2022-08-19T12:10:12;22.60;99.90
29813;DHT22;16707;48.106;11.548;2022-08-19T12:12:39;22.50;99.90
29813;DHT22;16707;48.106;11.548;2022-08-19T12:15:09;22.70;99.90
29813;DHT22;16707;48.106;11.548;2022-08-19T12:17:37;22.70;99.90
29813;DHT22;16707;48.106;11.548;2022-08-19T12:20:07;23.00;99.90
29813;DHT22;16707;48.106;11.548;2022-08-19T12:22:40;23.00;99.90
29813;DHT22;16707;48.106;11.548;2022-08-19T12:25:11;22.90;99.90
29813;DHT22;16707;48.106;11.548;2022-08-19T12:27:39;23.00;99.90
29813;DHT22;16707;48.106;11.548;2022-08-19T12:30:09;22.90;99.90
29813;DHT22;16707;48.106;11.548;2022-08-19T12:32:38;22.80;99.90
29813;DHT22;16707;48.106;11.548;2022-08-19T12:35:07;22.70;99.90
29813;DHT22;16707;48.106;11.548;2022-08-19T12:37:37;22.80;99.90
29813;DHT22;16707;48.106;11.548;2022-08-19T12:40:07;22.70;99.90
29813;DHT22;16707;48.106;11.548;2022-08-19T12:42:37;22.80;99.90
29813;DHT22;16707;48.106;11.548;2022-08-19T12:45:08;22.80;99.90
29813;DHT22;16707;48.106;11.548;2022-08-19T12:47:38;22.80;99.90
29813;DHT22;16707;48.106;11.548;2022-08-19T12:50:07;23.10;99.90
29813;DHT22;16707;48.106;11.548;2022-08-19T12:52:36;23.20;99.90
29813;DHT22;16707;48.106;11.548;2022-08-19T12:55:06;23.40;99.90
29813;DHT22;16707;48.106;11.548;2022-08-19T12:57:35;23.50;99.90
29813;DHT22;16707;48.106;11.548;2022-08-19T13:00:05;23.50;99.90
29813;DHT22;16707;48.106;11.548;2022-08-19T13:02:37;23.80;99.90
29813;DHT22;16707;48.106;11.548;2022-08-19T13:05:08;23.80;99.90
29813;DHT22;16707;48.106;11.548;2022-08-19T13:07:37;23.80;99.90
29813;DHT22;16707;48.106;11.548;2022-08-19T13:10:09;23.50;99.90
29813;DHT22;16707;48.106;11.548;2022-08-19T13:12:38;23.40;99.90
29813;DHT22;16707;48.106;11.548;2022-08-19T13:15:07;23.20;99.90
29813;DHT22;16707;48.106;11.548;2022-08-19T13:17:35;23.20;99.90
29813;DHT22;16707;48.106;11.548;2022-08-19T13:20:04;23.30;99.90
29813;DHT22;16707;48.106;11.548;2022-08-19T13:22:36;23.20;99.90
29813;DHT22;16707;48.106;11.548;2022-08-19T13:25:09;23.30;99.90
29813;DHT22;16707;48.106;11.548;2022-08-19T13:27:39;23.70;99.90
29813;DHT22;16707;48.106;11.548;2022-08-19T13:30:09;23.60;99.90
29813;DHT22;16707;48.106;11.548;2022-08-19T13:32:55;23.50;99.90
29813;DHT22;16707;48.106;11.548;2022-08-19T13:35:37;23.60;99.90
29813;DHT22;16707;48.106;11.548;2022-08-19T13:38:05;23.50;99.90
29813;DHT22;16707;48.106;11.548;2022-08-19T13:40:34;23.40;99.90
29813;DHT22;16707;48.106;11.548;2022-08-19T13:43:03;23.30;99.90
29813;DHT22;16707;48.106;11.548;2022-08-19T13:45:33;23.30;99.90
29813;DHT22;16707;48.106;11.548;2022-08-19T13:48:02;23.40;99.90
29813;DHT22;16707;48.106;11.548;2022-08-19T13:50:33;23.60;99.90
29813;DHT22;16707;48.106;11.548;2022-08-19T13:53:02;24.20;99.90
29813;DHT22;16707;48.106;11.548;2022-08-19T13:55:32;24.10;99.90
29813;DHT22;16707;48.106;11.548;2022-08-19T13:58:07;24.10;99.90
29813;DHT22;16707;48.106;11.548;2022-08-19T14:00:38;24.10;99.90
29813;DHT22;16707;48.106;11.548;2022-08-19T14:03:12;24.00;99.90
29813;DHT22;16707;48.106;11.548;2022-08-19T14:05:40;24.00;99.90
29813;DHT22;16707;48.106;11.548;2022-08-19T14:08:07;23.80;99.90
29813;DHT22;16707;48.106;11.548;2022-08-19T14:10:34;23.50;99.90
29813;DHT22;16707;48.106;11.548;2022-08-19T14:13:03;23.50;99.90
29813;DHT22;16707;48.106;11.548;2022-08-19T14:15:31;24.00;99.90
29813;DHT22;16707;48.106;11.548;2022-08-19T14:18:08;24.30;99.90
29813;DHT22;16707;48.106;11.548;2022-08-19T14:20:37;24.20;99.90
29813;DHT22;16707;48.106;11.548;2022-08-19T14:23:04;23.90;99.90
29813;DHT22;16707;48.106;11.548;2022-08-19T14:25:38;23.70;99.90
29813;DHT22;16707;48.106;11.548;2022-08-19T14:28:07;23.50;99.90
29813;DHT22;16707;48.106;11.548;2022-08-19T14:30:37;23.30;99.90
29813;DHT22;16707;48.106;11.548;2022-08-19T14:33:06;22.80;99.90
29813;DHT22;16707;48.106;11.548;2022-08-19T14:35:37;23.10;99.90
29813;DHT22;16707;48.106;11.548;2022-08-19T14:38:16;23.30;99.90
29813;DHT22;16707;48.106;11.548;2022-08-19T14:40:47;23.20;99.90
29813;DHT22;16707;48.106;11.548;2022-08-19T14:43:19;23.00;99.90
29813;DHT22;16707;48.106;11.548;2022-08-19T14:45:48;22.70;99.90
29813;DHT22;16707;48.106;11.548;2022-08-19T14:48:15;22.70;99.90
29813;DHT22;16707;48.106;11.548;2022-08-19T14:50:47;22.60;99.90
29813;DHT22;16707;48.106;11.548;2022-08-19T14:53:19;22.40;99.90
29813;DHT22;16707;48.106;11.548;2022-08-19T14:55:52;22.40;99.90
29813;DHT22;16707;48.106;11.548;2022-08-19T14:58:23;22.30;99.90
29813;DHT22;16707;48.106;11.548;2022-08-19T15:00:53;22.40;99.90
29813;DHT22;16707;48.106;11.548;2022-08-19T15:03:25;22.40;99.90
29813;DHT22;16707;48.106;11.548;2022-08-19T15:05:53;22.70;99.90
29813;DHT22;16707;48.106;11.548;2022-08-19T15:08:28;22.70;99.90
29813;DHT22;16707;48.106;11.548;2022-08-19T15:10:57;22.80;99.90
29813;DHT22;16707;48.106;11.548;2022-08-19T15:13:28;22.70;99.90
29813;DHT22;16707;48.106;11.548;2022-08-19T15:15:56;22.80;99.90
29813;DHT22;16707;48.106;11.548;2022-08-19T15:18:26;22.40;99.90
29813;DHT22;16707;48.106;11.548;2022-08-19T15:21:02;22.40;99.90
29813;DHT22;16707;48.106;11.548;2022-08-19T15:23:38;22.30;99.90
29813;DHT22;16707;48.106;11.548;2022-08-19T15:26:09;22.20;99.90
29813;DHT22;16707;48.106;11.548;2022-08-19T15:28:47;22.10;99.90
29813;DHT22;16707;48.106;11.548;2022-08-19T15:31:20;22.30;99.90
29813;DHT22;16707;48.106;11.548;2022-08-19T15:33:50;22.20;99.90
29813;DHT22;16707;48.106;11.548;2022-08-19T15:36:23;21.90;99.90
29813;DHT22;16707;48.106;11.548;2022-08-19T15:38:55;22.00;99.90
29813;DHT22;16707;48.106;11.548;2022-08-19T15:41:33;22.10;99.90
29813;DHT22;16707;48.106;11.548;2022-08-19T15:44:12;22.30;99.90
29813;DHT22;16707;48.106;11.548;2022-08-19T15:46:45;22.30;99.90